createdAt,value
2017-09-28T00:02:11.198Z,101529.31
2017-09-28T00:04:37.992Z,101528.08
2017-09-28T00:07:04.802Z,101524.55
2017-09-28T00:09:31.600Z,101523.62
2017-09-28T00:11:58.397Z,101531.32
2017-09-28T00:14:25.219Z,101533.91
2017-09-28T00:16:52.058Z,101534.44
2017-09-28T00:19:18.831Z,101525.78
2017-09-28T00:21:45.628Z,101531.36
2017-09-28T00:24:12.422Z,101529.12
2017-09-28T00:26:39.991Z,101528.94
2017-09-28T00:29:07.549Z,101534.42
2017-09-28T00:31:35.234Z,101525.05
2017-09-28T00:34:02.179Z,101532.77
2017-09-28T00:36:29.080Z,101521.13
2017-09-28T00:38:56.683Z,101520.58
2017-09-28T00:41:23.605Z,101522.67
2017-09-28T00:43:51.197Z,101528.69
2017-09-28T00:46:18.788Z,101524.59
2017-09-28T00:48:45.688Z,101526.30
2017-09-28T00:51:12.556Z,101522.38
2017-09-28T00:53:39.467Z,101517.18
2017-09-28T00:56:07.068Z,101516.91
2017-09-28T00:58:33.890Z,101517.61
2017-09-28T01:01:00.763Z,101520.55
2017-09-28T01:03:28.313Z,101515.45
2017-09-28T01:05:55.192Z,101510.03
2017-09-28T01:08:22.025Z,101515.64
2017-09-28T01:10:48.934Z,101509.36
2017-09-28T01:13:16.548Z,101514.08
2017-09-28T01:15:43.390Z,101510.31
2017-09-28T01:18:10.275Z,101506.94
2017-09-28T01:20:37.206Z,101508.13
2017-09-28T01:23:04.117Z,101506.85
2017-09-28T01:25:31.010Z,101505.30
2017-09-28T01:27:58.602Z,101499.55
2017-09-28T01:30:26.223Z,101501.72
2017-09-28T01:32:53.057Z,101499.98
2017-09-28T01:35:19.913Z,101509.86
2017-09-28T01:37:46.835Z,101504.69
2017-09-28T01:40:13.749Z,101504.83
2017-09-28T01:42:40.582Z,101499.56
2017-09-28T01:45:08.208Z,101497.61
2017-09-28T01:47:35.069Z,101493.88
2017-09-28T01:50:01.936Z,101491.34
2017-09-28T01:52:28.788Z,101495.11
2017-09-28T01:54:55.649Z,101492.34
2017-09-28T01:57:22.519Z,101497.41
2017-09-28T01:59:49.385Z,101491.05
2017-09-28T02:02:16.404Z,101490.02
2017-09-28T02:04:43.274Z,101488.20
2017-09-28T02:07:10.137Z,101486.97
2017-09-28T02:09:37.007Z,101478.05
2017-09-28T02:12:03.862Z,101485.07
2017-09-28T02:14:30.710Z,101490.24
2017-09-28T02:16:57.535Z,101480.19
2017-09-28T02:19:24.402Z,101480.39
2017-09-28T02:21:51.225Z,101473.97
2017-09-28T02:24:18.143Z,101480.72
2017-09-28T02:26:45.781Z,101480.83
2017-09-28T02:29:12.619Z,101474.78
2017-09-28T02:31:39.467Z,101473.86
2017-09-28T02:34:06.296Z,101478.03
2017-09-28T02:36:33.898Z,101480.96
2017-09-28T02:39:00.706Z,101483.69
2017-09-28T02:41:27.492Z,101487.73
2017-09-28T02:43:54.312Z,101482.80
2017-09-28T02:46:21.134Z,101486.78
2017-09-28T02:48:48.653Z,101490.16
2017-09-28T02:51:15.463Z,101485.65
2017-09-28T02:53:43.060Z,101491.66
2017-09-28T02:56:09.847Z,101494.77
2017-09-28T02:58:36.656Z,101488.64
2017-09-28T03:01:04.225Z,101481.92
2017-09-28T03:03:31.025Z,101487.98
2017-09-28T03:05:57.934Z,101491.58
2017-09-28T03:08:24.723Z,101496.38
2017-09-28T03:10:52.260Z,101497.03
2017-09-28T03:13:19.068Z,101494.87
2017-09-28T03:15:45.902Z,101493.70
2017-09-28T03:18:12.739Z,101491.24
2017-09-28T03:20:39.558Z,101491.48
2017-09-28T03:23:06.369Z,101492.92
2017-09-28T03:25:33.191Z,101490.09
2017-09-28T03:27:59.983Z,101490.83
2017-09-28T03:30:26.916Z,101493.66
2017-09-28T03:32:53.879Z,101490.00
2017-09-28T03:35:20.724Z,101483.78
2017-09-28T03:37:47.507Z,101486.36
2017-09-28T03:40:14.319Z,101489.93
2017-09-28T03:42:41.860Z,101493.30
2017-09-28T03:45:08.714Z,101489.83
2017-09-28T03:47:35.565Z,101482.02
2017-09-28T03:50:02.381Z,101489.43
2017-09-28T03:52:29.913Z,101486.68
2017-09-28T03:54:56.733Z,101486.65
2017-09-28T03:57:24.302Z,101479.91
2017-09-28T03:59:51.890Z,101484.94
2017-09-28T04:02:18.750Z,101489.05
2017-09-28T04:04:45.559Z,101485.36
2017-09-28T04:07:12.351Z,101488.72
2017-09-28T04:09:39.111Z,101478.48
2017-09-28T04:12:05.895Z,101476.14
2017-09-28T04:14:32.692Z,101472.30
2017-09-28T04:16:59.495Z,101471.37
2017-09-28T04:19:27.035Z,101473.91
2017-09-28T04:21:53.848Z,101474.25
2017-09-28T04:24:21.400Z,101470.14
2017-09-28T04:26:48.268Z,101471.49
2017-09-28T04:29:15.842Z,101467.72
2017-09-28T04:31:42.721Z,101464.66
2017-09-28T04:34:10.306Z,101469.44
2017-09-28T04:36:37.105Z,101471.52
2017-09-28T04:39:04.034Z,101469.78
2017-09-28T04:41:30.832Z,101475.55
2017-09-28T04:43:57.612Z,101478.42
2017-09-28T04:46:24.418Z,101475.91
2017-09-28T04:48:51.222Z,101477.17
2017-09-28T04:51:18.060Z,101474.75
2017-09-28T04:53:44.843Z,101469.98
2017-09-28T04:56:11.661Z,101463.29
2017-09-28T04:58:38.515Z,101467.58
2017-09-28T05:01:05.315Z,101468.92
2017-09-28T05:03:32.113Z,101467.99
2017-09-28T05:05:59.652Z,101474.34
2017-09-28T05:08:26.450Z,101469.75
2017-09-28T05:10:53.979Z,101467.58
2017-09-28T05:13:20.853Z,101470.84
2017-09-28T05:15:47.652Z,101464.91
2017-09-28T05:18:15.198Z,101462.65
2017-09-28T05:20:42.033Z,101464.88
2017-09-28T05:23:08.814Z,101462.33
2017-09-28T05:25:35.619Z,101466.77
2017-09-28T05:28:03.136Z,101463.92
2017-09-28T05:30:29.981Z,101471.14
2017-09-28T05:32:56.812Z,101471.74
2017-09-28T05:35:24.380Z,101478.27
2017-09-28T05:37:51.977Z,101481.36
2017-09-28T05:40:18.844Z,101486.87
2017-09-28T05:42:45.661Z,101485.47
2017-09-28T05:45:12.476Z,101474.58
2017-09-28T05:47:39.292Z,101476.80
2017-09-28T05:50:06.870Z,101468.84
2017-09-28T05:52:33.690Z,101475.45
2017-09-28T05:55:00.494Z,101474.95
2017-09-28T05:57:27.355Z,101473.81
2017-09-28T05:59:54.153Z,101474.88
2017-09-28T06:02:21.720Z,101471.58
2017-09-28T06:04:48.566Z,101472.17
2017-09-28T06:07:16.119Z,101475.23
2017-09-28T06:09:42.949Z,101473.72
2017-09-28T06:12:09.794Z,101479.47
2017-09-28T06:14:36.580Z,101489.75
2017-09-28T06:17:03.387Z,101485.70
2017-09-28T06:19:30.943Z,101484.97
2017-09-28T06:21:57.772Z,101483.28
2017-09-28T06:24:24.552Z,101488.20
2017-09-28T06:26:51.370Z,101489.02
2017-09-28T06:29:18.181Z,101492.03
2017-09-28T06:31:44.957Z,101498.02
2017-09-28T06:34:12.525Z,101498.53
2017-09-28T06:36:39.377Z,101495.93
2017-09-28T06:39:08.485Z,101495.87
2017-09-28T06:41:35.283Z,101496.47
2017-09-28T06:44:02.851Z,101491.49
2017-09-28T06:46:30.470Z,101494.55
2017-09-28T06:48:57.342Z,101498.11
2017-09-28T06:51:24.120Z,101488.52
2017-09-28T06:53:50.917Z,101481.53
2017-09-28T06:56:17.730Z,101495.30
2017-09-28T06:58:44.530Z,101496.03
2017-09-28T07:01:12.151Z,101498.02
2017-09-28T07:03:38.959Z,101491.48
2017-09-28T07:06:05.770Z,101497.52
2017-09-28T07:08:32.650Z,101492.73
2017-09-28T07:10:59.470Z,101493.11
2017-09-28T07:13:26.239Z,101498.84
2017-09-28T07:15:53.110Z,101494.59
2017-09-28T07:18:19.930Z,101492.21
2017-09-28T07:20:47.493Z,101495.65
2017-09-28T07:23:14.306Z,101491.30
2017-09-28T07:25:41.103Z,101498.77
2017-09-28T07:28:07.925Z,101499.53
2017-09-28T07:30:34.803Z,101497.40
2017-09-28T07:33:01.628Z,101506.86
2017-09-28T07:35:28.481Z,101503.59
2017-09-28T07:37:56.089Z,101503.53
2017-09-28T07:40:22.878Z,101501.40
2017-09-28T07:42:49.747Z,101505.93
2017-09-28T07:45:16.562Z,101511.76
2017-09-28T07:47:43.398Z,101512.59
2017-09-28T07:50:10.949Z,101510.92
2017-09-28T07:52:37.727Z,101509.36
2017-09-28T07:55:04.585Z,101507.76
2017-09-28T07:57:31.399Z,101511.19
2017-09-28T07:59:58.262Z,101513.52
2017-09-28T08:02:25.802Z,101511.48
2017-09-28T08:04:52.599Z,101517.44
2017-09-28T08:07:19.393Z,101516.19
2017-09-28T08:09:46.160Z,101522.38
2017-09-28T08:12:12.967Z,101513.29
2017-09-28T08:14:39.881Z,101517.70
2017-09-28T08:17:06.685Z,101512.70
2017-09-28T08:19:33.502Z,101511.84
2017-09-28T08:22:00.319Z,101511.93
2017-09-28T08:24:27.152Z,101509.48
2017-09-28T08:26:54.733Z,101509.75
2017-09-28T08:29:21.538Z,101506.15
2017-09-28T08:31:48.398Z,101510.38
2017-09-28T08:34:15.216Z,101502.66
2017-09-28T08:36:42.021Z,101496.56
2017-09-28T08:39:08.851Z,101492.23
2017-09-28T08:41:35.658Z,101487.90
2017-09-28T08:44:02.494Z,101491.91
2017-09-28T08:46:29.286Z,101499.30
2017-09-28T08:48:56.069Z,101495.33
2017-09-28T08:51:23.626Z,101500.45
2017-09-28T08:53:50.411Z,101501.97
2017-09-28T08:56:17.222Z,101502.22
2017-09-28T08:58:44.019Z,101504.92
2017-09-28T09:01:10.830Z,101503.00
2017-09-28T09:03:37.611Z,101503.89
2017-09-28T09:06:04.432Z,101499.09
2017-09-28T09:08:31.217Z,101494.52
2017-09-28T09:10:58.032Z,101499.44
2017-09-28T09:13:24.841Z,101509.08
2017-09-28T09:15:51.638Z,101502.89
2017-09-28T09:18:19.169Z,101494.28
2017-09-28T09:20:45.988Z,101493.73
2017-09-28T09:23:13.554Z,101496.97
2017-09-28T09:25:41.096Z,101496.69
2017-09-28T09:28:07.919Z,101489.65
2017-09-28T09:30:34.715Z,101489.10
2017-09-28T09:33:01.490Z,101479.94
2017-09-28T09:35:28.255Z,101476.20
2017-09-28T09:37:55.143Z,101468.98
2017-09-28T09:40:22.746Z,101476.55
2017-09-28T09:42:49.567Z,101476.86
2017-09-28T09:45:17.135Z,101478.58
2017-09-28T09:47:44.008Z,101477.97
2017-09-28T09:50:11.544Z,101476.78
2017-09-28T09:52:38.383Z,101480.72
2017-09-28T09:55:05.188Z,101484.55
2017-09-28T09:57:31.998Z,101489.62
2017-09-28T09:59:58.819Z,101480.52
2017-09-28T10:02:25.688Z,101485.19
2017-09-28T10:04:52.494Z,101481.73
2017-09-28T10:07:25.223Z,101485.36
2017-09-28T10:09:57.772Z,101481.29
2017-09-28T10:12:30.222Z,101492.47
2017-09-28T10:15:01.517Z,101494.15
2017-09-28T10:17:28.371Z,101491.94
2017-09-28T10:19:55.234Z,101491.94
2017-09-28T10:22:22.096Z,101492.69
2017-09-28T10:24:48.902Z,101495.45
2017-09-28T10:27:15.707Z,101499.52
2017-09-28T10:29:43.290Z,101499.69
2017-09-28T10:32:10.166Z,101495.75
2017-09-28T10:34:37.287Z,101493.49
2017-09-28T10:37:04.135Z,101491.94
2017-09-28T10:39:31.002Z,101494.50
2017-09-28T10:41:57.826Z,101504.84
2017-09-28T10:44:24.689Z,101500.29
2017-09-28T10:46:52.236Z,101498.59
2017-09-28T10:49:19.803Z,101504.09
2017-09-28T10:51:47.350Z,101504.27
2017-09-28T10:54:14.175Z,101506.93
2017-09-28T10:56:40.970Z,101504.61
2017-09-28T10:59:07.819Z,101511.70
2017-09-28T11:01:34.637Z,101505.64
2017-09-28T11:04:01.428Z,101507.55
2017-09-28T11:06:28.292Z,101503.89
2017-09-28T11:08:55.075Z,101502.41
2017-09-28T11:11:21.856Z,101499.30
2017-09-28T11:13:49.389Z,101503.74
2017-09-28T11:16:16.845Z,101506.76
2017-09-28T11:18:43.654Z,101512.34
2017-09-28T11:21:10.472Z,101510.70
2017-09-28T11:23:37.285Z,101507.77
2017-09-28T11:26:04.065Z,101505.47
2017-09-28T11:28:31.614Z,101504.62
2017-09-28T11:30:58.447Z,101510.63
2017-09-28T11:33:25.268Z,101513.31
2017-09-28T11:35:52.104Z,101509.03
2017-09-28T11:38:18.918Z,101501.45
2017-09-28T11:40:45.795Z,101504.53
2017-09-28T11:43:12.597Z,101506.34
2017-09-28T11:45:40.258Z,101495.13
2017-09-28T11:48:07.065Z,101493.09
2017-09-28T11:50:33.919Z,101494.45
2017-09-28T11:53:00.716Z,101494.58
2017-09-28T11:55:27.539Z,101498.48
2017-09-28T11:57:54.398Z,101497.14
2017-09-28T12:00:21.229Z,101499.08
2017-09-28T12:02:48.018Z,101488.74
2017-09-28T12:05:14.873Z,101492.68
2017-09-28T12:07:42.426Z,101488.40
2017-09-28T12:10:09.254Z,101493.46
2017-09-28T12:12:36.079Z,101503.16
2017-09-28T12:15:02.928Z,101504.94
2017-09-28T12:17:30.482Z,101504.53
2017-09-28T12:19:57.321Z,101502.81
2017-09-28T12:22:24.119Z,101504.10
2017-09-28T12:24:55.036Z,101504.63
2017-09-28T12:27:21.863Z,101507.01
2017-09-28T12:29:48.670Z,101505.80
2017-09-28T12:32:15.465Z,101500.17
2017-09-28T12:34:43.035Z,101500.60
2017-09-28T12:37:10.582Z,101493.97
2017-09-28T12:39:37.423Z,101500.38
2017-09-28T12:42:04.255Z,101493.38
2017-09-28T12:44:31.094Z,101490.17
2017-09-28T12:46:58.643Z,101491.47
2017-09-28T12:49:25.518Z,101483.22
2017-09-28T12:51:52.335Z,101486.75
2017-09-28T12:54:19.166Z,101484.33
2017-09-28T12:56:46.750Z,101480.25
2017-09-28T12:59:13.517Z,101484.45
2017-09-28T13:01:40.313Z,101479.52
2017-09-28T13:04:07.114Z,101484.28
2017-09-28T13:06:34.672Z,101491.64
2017-09-28T13:09:01.470Z,101489.52
2017-09-28T13:11:28.280Z,101483.89
2017-09-28T13:13:55.099Z,101485.97
2017-09-28T13:16:21.926Z,101481.08
2017-09-28T13:18:49.482Z,101481.72
2017-09-28T13:21:16.313Z,101483.67
2017-09-28T13:23:43.131Z,101479.38
2017-09-28T13:26:10.665Z,101477.69
2017-09-28T13:28:37.461Z,101470.72
2017-09-28T13:31:04.294Z,101467.41
2017-09-28T13:33:32.288Z,101471.75
2017-09-28T13:36:05.806Z,101470.44
2017-09-28T13:38:34.525Z,101472.19
2017-09-28T13:41:01.355Z,101473.82
2017-09-28T13:43:28.160Z,101472.60
2017-09-28T13:45:55.772Z,101475.72
2017-09-28T13:48:23.332Z,101476.38
2017-09-28T13:50:50.722Z,101473.86
2017-09-28T13:53:17.561Z,101477.02
2017-09-28T13:55:44.526Z,101476.84
2017-09-28T13:58:11.810Z,101473.08
2017-09-28T14:00:38.604Z,101477.05
2017-09-28T14:03:05.740Z,101473.23
2017-09-28T14:05:32.602Z,101469.88
2017-09-28T14:07:59.901Z,101467.72
2017-09-28T14:10:26.810Z,101470.85
2017-09-28T14:12:53.604Z,101471.41
2017-09-28T14:15:20.439Z,101470.53
2017-09-28T14:17:47.997Z,101473.80
2017-09-28T14:20:14.814Z,101473.45
2017-09-28T14:22:41.726Z,101468.86
2017-09-28T14:25:08.562Z,101471.66
2017-09-28T14:27:35.364Z,101469.42
2017-09-28T14:30:02.193Z,101467.02
2017-09-28T14:32:29.016Z,101466.71
2017-09-28T14:34:55.834Z,101468.53
2017-09-28T14:37:23.439Z,101471.30
2017-09-28T14:39:51.165Z,101471.88
2017-09-28T14:42:19.000Z,101467.48
2017-09-28T14:44:46.238Z,101467.51
2017-09-28T14:47:13.034Z,101471.05
2017-09-28T14:49:40.261Z,101467.23
2017-09-28T14:52:07.197Z,101464.37
2017-09-28T14:54:34.044Z,101468.64
2017-09-28T14:57:01.126Z,101466.97
2017-09-28T14:59:27.991Z,101466.27
2017-09-28T15:01:54.819Z,101463.36
2017-09-28T15:04:21.655Z,101456.38
2017-09-28T15:06:49.252Z,101458.96
2017-09-28T15:09:16.266Z,101456.89
2017-09-28T15:11:43.100Z,101460.55
2017-09-28T15:14:10.827Z,101461.81
2017-09-28T15:16:37.919Z,101456.08
2017-09-28T15:19:05.267Z,101453.09
2017-09-28T15:21:32.369Z,101453.27
2017-09-28T15:23:59.238Z,101459.66
2017-09-28T15:26:26.097Z,101458.08
2017-09-28T15:28:52.913Z,101461.99
2017-09-28T15:31:19.791Z,101459.88
2017-09-28T15:33:47.318Z,101463.39
2017-09-28T15:36:14.108Z,101459.60
2017-09-28T15:38:40.943Z,101458.92
2017-09-28T15:41:07.750Z,101461.67
2017-09-28T15:43:35.308Z,101456.53
2017-09-28T15:46:02.474Z,101456.10
2017-09-28T15:48:29.264Z,101462.20
2017-09-28T15:50:56.849Z,101454.59
2017-09-28T15:53:23.732Z,101454.59
2017-09-28T15:55:50.807Z,101453.93
2017-09-28T15:58:17.632Z,101454.36
2017-09-28T16:00:44.492Z,101455.31
2017-09-28T16:03:11.300Z,101457.04
2017-09-28T16:05:38.120Z,101461.61
2017-09-28T16:08:04.997Z,101460.31
2017-09-28T16:10:32.619Z,101460.23
2017-09-28T16:12:59.447Z,101459.12
2017-09-28T16:15:26.355Z,101463.58
2017-09-28T16:17:53.166Z,101463.36
2017-09-28T16:20:20.009Z,101456.63
2017-09-28T16:22:46.874Z,101462.85
2017-09-28T16:25:13.732Z,101467.81
2017-09-28T16:27:40.572Z,101463.14
2017-09-28T16:30:08.207Z,101466.27
2017-09-28T16:32:35.028Z,101469.44
2017-09-28T16:35:01.900Z,101468.52
2017-09-28T16:37:28.724Z,101463.23
2017-09-28T16:39:55.577Z,101458.93
2017-09-28T16:42:23.182Z,101467.05
2017-09-28T16:44:50.763Z,101460.23
2017-09-28T16:47:17.586Z,101459.86
2017-09-28T16:49:44.437Z,101458.27
2017-09-28T16:52:11.301Z,101459.52
2017-09-28T16:54:39.743Z,101455.38
2017-09-28T16:57:08.471Z,101462.07
2017-09-28T16:59:35.293Z,101460.27
2017-09-28T17:02:02.893Z,101465.98
2017-09-28T17:04:29.754Z,101465.67
2017-09-28T17:06:56.623Z,101471.38
2017-09-28T17:09:23.481Z,101470.70
2017-09-28T17:11:50.339Z,101469.42
2017-09-28T17:14:17.219Z,101475.88
2017-09-28T17:16:44.062Z,101472.03
2017-09-28T17:19:10.883Z,101476.95
2017-09-28T17:21:37.747Z,101478.53
2017-09-28T17:24:04.572Z,101476.31
2017-09-28T17:26:31.400Z,101477.67
2017-09-28T17:28:58.245Z,101475.42
2017-09-28T17:31:25.820Z,101477.80
2017-09-28T17:33:52.714Z,101483.65
2017-09-28T17:36:20.312Z,101483.56
2017-09-28T17:38:47.144Z,101489.86
2017-09-28T17:41:13.975Z,101485.70
2017-09-28T17:43:40.854Z,101492.53
2017-09-28T17:46:08.420Z,101484.91
2017-09-28T17:48:35.270Z,101480.59
2017-09-28T17:51:02.124Z,101487.95
2017-09-28T17:53:28.949Z,101476.43
2017-09-28T17:55:55.759Z,101482.94
2017-09-28T17:58:22.584Z,101481.23
2017-09-28T18:00:49.425Z,101497.03
2017-09-28T18:03:16.302Z,101491.69
2017-09-28T18:05:43.895Z,101501.18
2017-09-28T18:08:10.735Z,101500.30
2017-09-28T18:10:37.551Z,101500.47
2017-09-28T18:13:05.199Z,101510.63
2017-09-28T18:15:32.084Z,101509.62
2017-09-28T18:17:58.951Z,101509.74
2017-09-28T18:20:25.806Z,101508.10
2017-09-28T18:22:52.655Z,101516.77
2017-09-28T18:25:19.549Z,101509.80
2017-09-28T18:27:47.393Z,101505.94
2017-09-28T18:30:14.276Z,101511.06
2017-09-28T18:32:41.239Z,101510.93
2017-09-28T18:35:08.095Z,101509.05
2017-09-28T18:37:35.597Z,101517.71
2017-09-28T18:40:03.885Z,101517.20
2017-09-28T18:42:30.899Z,101513.98
2017-09-28T18:44:58.173Z,101518.42
2017-09-28T18:47:25.863Z,101514.41
2017-09-28T18:49:53.019Z,101515.70
2017-09-28T18:52:19.853Z,101515.66
2017-09-28T18:54:46.733Z,101521.13
2017-09-28T18:57:13.620Z,101519.47
2017-09-28T18:59:41.064Z,101517.20
2017-09-28T19:02:07.959Z,101521.56
2017-09-28T19:04:35.961Z,101517.83
2017-09-28T19:07:04.243Z,101521.75
2017-09-28T19:09:31.889Z,101516.92
2017-09-28T19:11:58.963Z,101524.70
2017-09-28T19:14:25.899Z,101521.86
2017-09-28T19:16:53.501Z,101521.20
2017-09-28T19:19:20.485Z,101527.25
2017-09-28T19:21:47.526Z,101521.87
2017-09-28T19:24:14.376Z,101522.98
2017-09-28T19:26:41.652Z,101529.55
2017-09-28T19:29:08.625Z,101526.95
2017-09-28T19:31:35.580Z,101531.44
2017-09-28T19:34:02.585Z,101528.93
2017-09-28T19:36:35.828Z,101532.83
2017-09-28T19:39:03.641Z,101528.42
2017-09-28T19:41:30.506Z,101540.93
2017-09-28T19:43:58.413Z,101544.17
2017-09-28T19:46:26.226Z,101545.86
2017-09-28T19:48:53.368Z,101552.39
2017-09-28T19:51:20.213Z,101551.91
2017-09-28T19:53:47.126Z,101554.67
2017-09-28T19:56:14.749Z,101558.57
2017-09-28T19:58:41.590Z,101561.06
2017-09-28T20:01:08.468Z,101559.77
2017-09-28T20:03:35.275Z,101558.14
2017-09-28T20:06:02.104Z,101562.36
2017-09-28T20:08:28.976Z,101566.09
2017-09-28T20:10:55.960Z,101563.42
2017-09-28T20:13:23.115Z,101564.92
2017-09-28T20:15:49.989Z,101572.39
2017-09-28T20:18:17.270Z,101561.05
2017-09-28T20:20:44.892Z,101562.58
2017-09-28T20:23:11.744Z,101560.86
2017-09-28T20:25:38.591Z,101554.88
2017-09-28T20:28:06.190Z,101555.94
2017-09-28T20:30:32.995Z,101559.05
2017-09-28T20:32:59.861Z,101554.67
2017-09-28T20:35:26.693Z,101549.06
2017-09-28T20:37:53.550Z,101552.37
2017-09-28T20:40:20.386Z,101560.38
2017-09-28T20:42:48.767Z,101553.22
2017-09-28T20:45:16.362Z,101549.40
2017-09-28T20:47:43.166Z,101555.13
2017-09-28T20:50:10.863Z,101557.39
2017-09-28T20:52:37.760Z,101558.30
2017-09-28T20:55:04.571Z,101558.92
2017-09-28T20:57:31.427Z,101556.26
2017-09-28T20:59:58.245Z,101555.13
2017-09-28T21:02:25.087Z,101556.31
2017-09-28T21:04:52.674Z,101555.17
2017-09-28T21:07:20.262Z,101549.56
2017-09-28T21:09:47.118Z,101542.36
2017-09-28T21:12:13.944Z,101546.08
2017-09-28T21:14:40.785Z,101543.70
2017-09-28T21:17:07.934Z,101538.55
2017-09-28T21:19:34.795Z,101537.20
2017-09-28T21:22:01.667Z,101543.05
2017-09-28T21:24:28.511Z,101542.27
2017-09-28T21:26:55.390Z,101539.16
2017-09-28T21:29:22.258Z,101544.67
2017-09-28T21:31:49.144Z,101542.56
2017-09-28T21:34:16.006Z,101540.91
2017-09-28T21:36:42.820Z,101538.13
2017-09-28T21:39:09.702Z,101538.74
2017-09-28T21:41:36.542Z,101538.48
2017-09-28T21:44:03.475Z,101532.73
2017-09-28T21:46:31.035Z,101537.42
2017-09-28T21:48:57.879Z,101543.66
2017-09-28T21:51:24.701Z,101535.97
2017-09-28T21:53:51.564Z,101541.69
2017-09-28T21:56:18.376Z,101539.97
2017-09-28T21:58:45.202Z,101538.66
2017-09-28T22:01:12.103Z,101541.03
2017-09-28T22:03:38.936Z,101539.77
2017-09-28T22:06:05.803Z,101535.47
2017-09-28T22:08:32.646Z,101537.53
2017-09-28T22:10:59.509Z,101537.01
2017-09-28T22:13:26.413Z,101527.09
2017-09-28T22:15:53.214Z,101535.70
2017-09-28T22:18:20.051Z,101540.62
2017-09-28T22:20:47.605Z,101530.88
2017-09-28T22:23:14.420Z,101528.63
2017-09-28T22:25:41.266Z,101530.57
2017-09-28T22:28:08.090Z,101524.72
2017-09-28T22:30:34.892Z,101528.48
2017-09-28T22:33:01.731Z,101524.66
2017-09-28T22:35:29.270Z,101524.45
2017-09-28T22:37:56.096Z,101526.13
2017-09-28T22:40:22.928Z,101521.71
2017-09-28T22:42:51.848Z,101524.20
2017-09-28T22:45:19.498Z,101516.52
2017-09-28T22:47:46.315Z,101513.66
2017-09-28T22:50:13.134Z,101514.23
2017-09-28T22:52:40.700Z,101513.81
2017-09-28T22:55:08.297Z,101513.12
2017-09-28T22:57:35.822Z,101521.25
2017-09-28T23:00:02.754Z,101521.94
2017-09-28T23:02:29.553Z,101520.53
2017-09-28T23:04:56.401Z,101524.13
2017-09-28T23:07:23.236Z,101511.80
2017-09-28T23:09:50.040Z,101516.16
2017-09-28T23:12:16.864Z,101515.42
2017-09-28T23:14:43.665Z,101512.02
2017-09-28T23:17:10.479Z,101514.23
2017-09-28T23:19:37.303Z,101513.98
2017-09-28T23:22:04.120Z,101515.02
2017-09-28T23:24:30.944Z,101513.24
2017-09-28T23:26:58.545Z,101504.78
2017-09-28T23:29:25.337Z,101509.13
2017-09-28T23:31:52.180Z,101503.63
2017-09-28T23:34:19.003Z,101500.48
2017-09-28T23:36:46.552Z,101502.09
2017-09-28T23:39:13.375Z,101498.42
2017-09-28T23:41:40.181Z,101501.59
2017-09-28T23:44:07.031Z,101499.95
2017-09-28T23:46:33.832Z,101498.69
2017-09-28T23:49:01.383Z,101493.16
2017-09-28T23:51:28.215Z,101499.00
2017-09-28T23:53:55.022Z,101495.41
2017-09-28T23:56:22.567Z,101498.48
2017-09-28T23:58:49.372Z,101495.76
